createdAt,value
2022-08-24T00:00:50.813Z,100.00
2022-08-24T00:01:50.883Z,100.00
2022-08-24T00:02:50.972Z,100.00
2022-08-24T00:04:50.823Z,100.00
2022-08-24T00:05:50.840Z,100.00
2022-08-24T00:06:50.829Z,100.00
2022-08-24T00:07:50.840Z,100.00
2022-08-24T00:09:50.837Z,100.00
2022-08-24T00:10:50.828Z,100.00
2022-08-24T00:11:50.837Z,100.00
2022-08-24T00:12:50.823Z,100.00
2022-08-24T00:14:50.865Z,100.00
2022-08-24T00:15:50.832Z,100.00
2022-08-24T00:16:50.936Z,100.00
2022-08-24T00:17:50.853Z,100.00
2022-08-24T00:19:50.822Z,100.00
2022-08-24T00:20:50.848Z,100.00
2022-08-24T00:21:50.858Z,100.00
2022-08-24T00:22:50.845Z,100.00
2022-08-24T00:24:50.837Z,100.00
2022-08-24T00:25:50.840Z,100.00
2022-08-24T00:26:50.855Z,100.00
2022-08-24T00:27:50.852Z,100.00
2022-08-24T00:29:50.847Z,100.00
2022-08-24T00:30:50.872Z,100.00
2022-08-24T00:31:50.933Z,100.00
2022-08-24T00:32:50.852Z,100.00
2022-08-24T00:34:58.891Z,100.00
2022-08-24T00:35:50.848Z,100.00
2022-08-24T00:36:50.865Z,100.00
2022-08-24T00:37:50.856Z,100.00
2022-08-24T00:39:50.955Z,100.00
2022-08-24T00:40:50.880Z,100.00
2022-08-24T00:41:50.862Z,100.00
2022-08-24T00:42:50.908Z,100.00
2022-08-24T00:44:50.878Z,100.00
2022-08-24T00:45:50.969Z,100.00
2022-08-24T00:46:50.882Z,100.00
2022-08-24T00:47:50.881Z,100.00
2022-08-24T00:49:50.871Z,100.00
2022-08-24T00:50:50.890Z,100.00
2022-08-24T00:51:50.879Z,100.00
2022-08-24T00:52:50.891Z,100.00
2022-08-24T00:54:50.889Z,100.00
2022-08-24T00:55:50.881Z,100.00
2022-08-24T00:56:50.896Z,100.00
2022-08-24T00:57:50.876Z,100.00
2022-08-24T00:59:50.902Z,100.00
2022-08-24T01:00:50.980Z,100.00
2022-08-24T01:01:50.939Z,100.00
2022-08-24T01:02:50.897Z,100.00
2022-08-24T01:04:50.880Z,100.00
2022-08-24T01:05:50.897Z,100.00
2022-08-24T01:06:50.896Z,100.00
2022-08-24T01:07:50.945Z,100.00
2022-08-24T01:09:50.898Z,100.00
2022-08-24T01:10:50.921Z,100.00
2022-08-24T01:11:50.903Z,100.00
2022-08-24T01:12:59.547Z,100.00
2022-08-24T01:14:50.902Z,100.00
2022-08-24T01:15:50.927Z,100.00
2022-08-24T01:16:50.892Z,100.00
2022-08-24T01:17:50.898Z,100.00
2022-08-24T01:19:50.897Z,100.00
2022-08-24T01:20:50.922Z,100.00
2022-08-24T01:21:50.912Z,100.00
2022-08-24T01:22:50.918Z,100.00
2022-08-24T01:24:50.928Z,100.00
2022-08-24T01:25:50.930Z,100.00
2022-08-24T01:26:50.934Z,100.00
2022-08-24T01:27:50.992Z,100.00
2022-08-24T01:29:50.937Z,100.00
2022-08-24T01:30:50.898Z,100.00
2022-08-24T01:31:51.037Z,100.00
2022-08-24T01:32:50.953Z,100.00
2022-08-24T01:34:50.921Z,100.00
2022-08-24T01:35:50.933Z,100.00
2022-08-24T01:36:50.941Z,100.00
2022-08-24T01:37:50.928Z,100.00
2022-08-24T01:39:50.978Z,100.00
2022-08-24T01:40:50.932Z,100.00
2022-08-24T01:41:50.939Z,100.00
2022-08-24T01:42:50.928Z,100.00
2022-08-24T01:44:50.939Z,100.00
2022-08-24T01:45:50.921Z,100.00
2022-08-24T01:46:51.061Z,100.00
2022-08-24T01:47:50.948Z,100.00
2022-08-24T01:49:50.932Z,100.00
2022-08-24T01:50:50.961Z,100.00
2022-08-24T01:51:50.952Z,100.00
2022-08-24T01:53:04.799Z,100.00
2022-08-24T01:54:50.948Z,100.00
2022-08-24T01:55:50.943Z,100.00
2022-08-24T01:56:50.947Z,100.00
2022-08-24T01:57:59.961Z,100.00
2022-08-24T01:59:50.997Z,100.00
2022-08-24T02:00:50.970Z,100.00
2022-08-24T02:01:51.017Z,100.00
2022-08-24T02:02:50.983Z,100.00
2022-08-24T02:04:50.963Z,100.00
2022-08-24T02:05:50.964Z,100.00
2022-08-24T02:06:50.963Z,100.00
2022-08-24T02:07:50.973Z,100.00
2022-08-24T02:09:50.975Z,100.00
2022-08-24T02:10:54.954Z,100.00
2022-08-24T02:11:50.943Z,100.00
2022-08-24T02:12:50.997Z,100.00
2022-08-24T02:14:50.963Z,100.00
2022-08-24T02:15:51.002Z,100.00
2022-08-24T02:16:50.976Z,100.00
2022-08-24T02:17:50.983Z,100.00
2022-08-24T02:19:51.009Z,100.00
2022-08-24T02:20:50.983Z,100.00
2022-08-24T02:21:50.990Z,100.00
2022-08-24T02:22:50.996Z,100.00
2022-08-24T02:24:50.982Z,100.00
2022-08-24T02:25:50.997Z,100.00
2022-08-24T02:26:50.986Z,100.00
2022-08-24T02:27:50.976Z,100.00
2022-08-24T02:29:51.006Z,100.00
2022-08-24T02:30:51.063Z,100.00
2022-08-24T02:31:50.994Z,100.00
2022-08-24T02:32:50.991Z,100.00
2022-08-24T02:34:51.003Z,100.00
2022-08-24T02:35:50.999Z,100.00
2022-08-24T02:36:51.002Z,100.00
2022-08-24T02:37:51.009Z,100.00
2022-08-24T02:39:51.032Z,100.00
2022-08-24T02:40:51.000Z,100.00
2022-08-24T02:41:50.997Z,100.00
2022-08-24T02:42:51.009Z,100.00
2022-08-24T02:44:51.004Z,100.00
2022-08-24T02:45:51.026Z,100.00
2022-08-24T02:46:51.009Z,100.00
2022-08-24T02:47:51.020Z,100.00
2022-08-24T02:49:51.028Z,100.00
2022-08-24T02:50:51.020Z,100.00
2022-08-24T02:51:51.031Z,100.00
2022-08-24T02:52:51.037Z,100.00
2022-08-24T02:54:51.012Z,100.00
2022-08-24T02:55:51.003Z,100.00
2022-08-24T02:56:51.054Z,100.00
2022-08-24T02:57:51.021Z,100.00
2022-08-24T02:59:51.028Z,100.00
2022-08-24T03:00:51.032Z,100.00
2022-08-24T03:01:51.099Z,100.00
2022-08-24T03:02:51.098Z,100.00
2022-08-24T03:04:51.041Z,100.00
2022-08-24T03:05:51.038Z,100.00
2022-08-24T03:06:51.046Z,100.00
2022-08-24T03:07:52.220Z,100.00
2022-08-24T03:09:51.049Z,100.00
2022-08-24T03:10:51.040Z,100.00
2022-08-24T03:11:51.056Z,100.00
2022-08-24T03:12:51.045Z,100.00
2022-08-24T03:14:51.043Z,100.00
2022-08-24T03:15:51.124Z,100.00
2022-08-24T03:16:51.036Z,100.00
2022-08-24T03:17:51.048Z,100.00
2022-08-24T03:19:51.045Z,100.00
2022-08-24T03:20:51.038Z,100.00
2022-08-24T03:21:51.049Z,100.00
2022-08-24T03:22:51.046Z,100.00
2022-08-24T03:24:51.057Z,100.00
2022-08-24T03:25:51.050Z,100.00
2022-08-24T03:26:51.050Z,100.00
2022-08-24T03:27:51.064Z,100.00
2022-08-24T03:29:51.057Z,100.00
2022-08-24T03:30:51.087Z,100.00
2022-08-24T03:31:51.081Z,100.00
2022-08-24T03:32:51.051Z,100.00
2022-08-24T03:34:51.064Z,100.00
2022-08-24T03:35:51.079Z,100.00
2022-08-24T03:36:51.054Z,100.00
2022-08-24T03:37:51.054Z,100.00
2022-08-24T03:39:51.176Z,100.00
2022-08-24T03:40:51.069Z,100.00
2022-08-24T03:41:51.078Z,100.00
2022-08-24T03:42:51.089Z,100.00
2022-08-24T03:44:51.044Z,100.00
2022-08-24T03:45:51.155Z,100.00
2022-08-24T03:46:51.083Z,100.00
2022-08-24T03:47:51.081Z,100.00
2022-08-24T03:49:51.089Z,100.00
2022-08-24T03:50:51.084Z,100.00
2022-08-24T03:51:51.102Z,100.00
2022-08-24T03:52:51.091Z,100.00
2022-08-24T03:54:51.100Z,100.00
2022-08-24T03:55:51.090Z,100.00
2022-08-24T03:56:51.096Z,100.00
2022-08-24T03:57:51.082Z,100.00
2022-08-24T03:59:51.077Z,100.00
2022-08-24T04:00:51.146Z,100.00
2022-08-24T04:01:51.092Z,100.00
2022-08-24T04:02:51.111Z,100.00
2022-08-24T04:04:51.128Z,100.00
2022-08-24T04:05:51.096Z,100.00
2022-08-24T04:06:51.094Z,100.00
2022-08-24T04:07:51.080Z,100.00
2022-08-24T04:09:51.110Z,100.00
2022-08-24T04:10:51.111Z,100.00
2022-08-24T04:11:52.064Z,100.00
2022-08-24T04:12:51.112Z,100.00
2022-08-24T04:14:51.118Z,100.00
2022-08-24T04:15:51.117Z,100.00
2022-08-24T04:16:57.216Z,100.00
2022-08-24T04:17:51.121Z,100.00
2022-08-24T04:19:51.119Z,100.00
2022-08-24T04:20:51.105Z,100.00
2022-08-24T04:21:51.125Z,100.00
2022-08-24T04:22:51.129Z,100.00
2022-08-24T04:24:51.119Z,100.00
2022-08-24T04:25:51.137Z,100.00
2022-08-24T04:26:51.108Z,100.00
2022-08-24T04:27:51.138Z,100.00
2022-08-24T04:29:51.158Z,100.00
2022-08-24T04:30:51.127Z,100.00
2022-08-24T04:31:51.160Z,100.00
2022-08-24T04:32:51.122Z,100.00
2022-08-24T04:34:51.137Z,100.00
2022-08-24T04:35:51.130Z,100.00
2022-08-24T04:36:51.147Z,100.00
2022-08-24T04:37:51.133Z,100.00
2022-08-24T04:39:51.240Z,100.00
2022-08-24T04:40:51.135Z,100.00
2022-08-24T04:41:51.149Z,100.00
2022-08-24T04:42:51.142Z,100.00
2022-08-24T04:44:51.153Z,100.00
2022-08-24T04:45:51.251Z,100.00
2022-08-24T04:46:51.148Z,100.00
2022-08-24T04:47:51.134Z,100.00
2022-08-24T04:49:51.139Z,100.00
2022-08-24T04:50:51.140Z,100.00
2022-08-24T04:51:51.149Z,100.00
2022-08-24T04:52:51.139Z,100.00
2022-08-24T04:54:51.162Z,100.00
2022-08-24T04:55:51.161Z,100.00
2022-08-24T04:56:51.169Z,100.00
2022-08-24T04:57:51.158Z,100.00
2022-08-24T04:59:51.152Z,100.00
2022-08-24T05:00:51.229Z,100.00
2022-08-24T05:01:51.201Z,100.00
2022-08-24T05:02:51.197Z,100.00
2022-08-24T05:04:51.156Z,100.00
2022-08-24T05:05:51.167Z,100.00
2022-08-24T05:06:53.227Z,100.00
2022-08-24T05:07:54.661Z,100.00
2022-08-24T05:09:52.330Z,100.00
2022-08-24T05:10:51.204Z,100.00
2022-08-24T05:11:51.179Z,100.00
2022-08-24T05:12:51.169Z,100.00
2022-08-24T05:14:51.168Z,100.00
2022-08-24T05:15:51.244Z,100.00
2022-08-24T05:16:53.194Z,100.00
2022-08-24T05:17:51.582Z,100.00
2022-08-24T05:19:51.208Z,100.00
2022-08-24T05:20:51.176Z,100.00
2022-08-24T05:21:51.194Z,100.00
2022-08-24T05:22:55.510Z,100.00
2022-08-24T05:24:51.194Z,100.00
2022-08-24T05:25:51.174Z,100.00
2022-08-24T05:26:51.194Z,100.00
2022-08-24T05:27:51.192Z,100.00
2022-08-24T05:29:51.208Z,100.00
2022-08-24T05:30:51.302Z,100.00
2022-08-24T05:31:51.223Z,100.00
2022-08-24T05:32:51.212Z,100.00
2022-08-24T05:34:51.225Z,100.00
2022-08-24T05:35:51.206Z,100.00
2022-08-24T05:36:51.199Z,100.00
2022-08-24T05:37:51.199Z,100.00
2022-08-24T05:39:51.250Z,100.00
2022-08-24T05:40:51.196Z,100.00
2022-08-24T05:41:51.215Z,100.00
2022-08-24T05:42:51.197Z,100.00
2022-08-24T05:44:51.206Z,100.00
2022-08-24T05:45:51.214Z,100.00
2022-08-24T05:46:51.345Z,100.00
2022-08-24T05:47:51.214Z,100.00
2022-08-24T05:49:51.243Z,100.00
2022-08-24T05:50:51.224Z,100.00
2022-08-24T05:51:51.232Z,100.00
2022-08-24T05:52:51.261Z,100.00
2022-08-24T05:54:51.220Z,100.00
2022-08-24T05:55:51.226Z,100.00
2022-08-24T05:56:51.235Z,100.00
2022-08-24T05:57:51.231Z,100.00
2022-08-24T05:59:51.235Z,100.00
2022-08-24T06:00:51.253Z,100.00
2022-08-24T06:01:51.332Z,100.00
2022-08-24T06:02:51.302Z,100.00
2022-08-24T06:04:51.224Z,100.00
2022-08-24T06:05:51.253Z,100.00
2022-08-24T06:06:51.247Z,100.00
2022-08-24T06:07:51.250Z,100.00
2022-08-24T06:09:51.261Z,100.00
2022-08-24T06:10:51.252Z,100.00
2022-08-24T06:11:51.247Z,100.00
2022-08-24T06:12:51.264Z,100.00
2022-08-24T06:14:51.261Z,100.00
2022-08-24T06:16:17.856Z,100.00
2022-08-24T06:16:51.317Z,100.00
2022-08-24T06:17:51.263Z,100.00
2022-08-24T06:19:51.247Z,100.00
2022-08-24T06:20:51.285Z,100.00
2022-08-24T06:21:51.281Z,100.00
2022-08-24T06:22:51.266Z,100.00
2022-08-24T06:24:51.260Z,100.00
2022-08-24T06:25:51.263Z,100.00
2022-08-24T06:26:51.261Z,100.00
2022-08-24T06:27:51.274Z,100.00
2022-08-24T06:29:51.245Z,100.00
2022-08-24T06:30:51.262Z,100.00
2022-08-24T06:31:54.237Z,100.00
2022-08-24T06:32:51.265Z,100.00
2022-08-24T06:34:51.278Z,100.00
2022-08-24T06:35:51.286Z,100.00
2022-08-24T06:36:51.283Z,100.00
2022-08-24T06:37:51.275Z,100.00
2022-08-24T06:39:55.938Z,100.00
2022-08-24T06:40:51.283Z,100.00
2022-08-24T06:41:51.300Z,100.00
2022-08-24T06:42:51.283Z,100.00
2022-08-24T06:44:51.275Z,100.00
2022-08-24T06:45:51.283Z,100.00
2022-08-24T06:46:51.323Z,100.00
2022-08-24T06:47:51.304Z,100.00
2022-08-24T06:49:51.304Z,100.00
2022-08-24T06:50:51.291Z,100.00
2022-08-24T06:51:51.290Z,100.00
2022-08-24T06:52:51.312Z,100.00
2022-08-24T06:54:51.301Z,100.00
2022-08-24T06:55:51.275Z,100.00
2022-08-24T06:56:51.291Z,100.00
2022-08-24T06:57:52.625Z,100.00
2022-08-24T06:59:51.291Z,100.00
2022-08-24T07:00:51.320Z,100.00
2022-08-24T07:01:51.362Z,100.00
2022-08-24T07:02:51.327Z,100.00
2022-08-24T07:04:51.313Z,100.00
2022-08-24T07:05:51.312Z,100.00
2022-08-24T07:06:51.296Z,100.00
2022-08-24T07:07:51.313Z,100.00
2022-08-24T07:09:51.298Z,100.00
2022-08-24T07:10:51.532Z,100.00
2022-08-24T07:11:51.649Z,100.00
2022-08-24T07:12:51.753Z,100.00
2022-08-24T07:14:51.943Z,100.00
2022-08-24T07:15:51.858Z,100.00
2022-08-24T07:16:55.298Z,100.00
2022-08-24T07:17:51.478Z,100.00
2022-08-24T07:19:51.411Z,100.00
2022-08-24T07:20:51.698Z,100.00
2022-08-24T07:21:55.029Z,100.00
2022-08-24T07:23:18.710Z,100.00
2022-08-24T07:24:51.374Z,100.00
2022-08-24T07:25:55.888Z,100.00
2022-08-24T07:26:51.439Z,100.00
2022-08-24T07:27:51.396Z,100.00
2022-08-24T07:30:04.821Z,100.00
2022-08-24T07:30:51.509Z,100.00
2022-08-24T07:31:51.566Z,100.00
2022-08-24T07:32:51.514Z,100.00
2022-08-24T07:34:51.349Z,100.00
2022-08-24T07:35:51.348Z,100.00
2022-08-24T07:36:51.366Z,100.00
2022-08-24T07:37:51.344Z,100.00
2022-08-24T07:39:51.403Z,100.00
2022-08-24T07:41:09.279Z,100.00
2022-08-24T07:42:11.511Z,100.00
2022-08-24T07:42:51.355Z,99.11
2022-08-24T07:44:51.364Z,98.29
2022-08-24T07:45:51.429Z,98.28
2022-08-24T07:46:51.473Z,98.44
2022-08-24T07:47:55.468Z,100.00
2022-08-24T07:49:51.378Z,100.00
2022-08-24T07:50:51.364Z,100.00
2022-08-24T07:51:51.378Z,100.00
2022-08-24T07:52:51.403Z,100.00
2022-08-24T07:54:51.379Z,98.75
2022-08-24T07:55:51.378Z,99.31
2022-08-24T07:56:51.383Z,99.75
2022-08-24T07:57:51.373Z,99.61
2022-08-24T07:59:51.392Z,100.00
2022-08-24T08:00:51.374Z,100.00
2022-08-24T08:01:51.428Z,100.00
2022-08-24T08:02:51.453Z,100.00
2022-08-24T08:04:51.379Z,100.00
2022-08-24T08:05:51.440Z,89.62
2022-08-24T08:06:51.448Z,94.05
2022-08-24T08:07:52.318Z,97.25
2022-08-24T08:09:51.403Z,82.09
2022-08-24T08:10:51.403Z,80.29
2022-08-24T08:11:51.397Z,81.41
2022-08-24T08:12:51.387Z,81.08
2022-08-24T08:14:51.384Z,71.39
2022-08-24T08:15:51.429Z,72.95
2022-08-24T08:16:51.404Z,70.88
2022-08-24T08:17:52.651Z,71.77
2022-08-24T08:19:51.420Z,71.87
2022-08-24T08:20:51.506Z,73.52
2022-08-24T08:21:51.409Z,71.39
2022-08-24T08:22:51.440Z,70.73
2022-08-24T08:24:51.405Z,72.62
2022-08-24T08:25:51.424Z,69.39
2022-08-24T08:26:51.413Z,60.38
2022-08-24T08:27:51.458Z,61.66
2022-08-24T08:29:51.455Z,58.02
2022-08-24T08:30:51.471Z,59.10
2022-08-24T08:31:51.434Z,58.09
2022-08-24T08:32:51.474Z,59.27
2022-08-24T08:34:51.418Z,62.98
2022-08-24T08:35:51.445Z,59.45
2022-08-24T08:36:51.426Z,57.92
2022-08-24T08:37:51.426Z,57.58
2022-08-24T08:39:51.531Z,56.28
2022-08-24T08:40:51.440Z,55.33
2022-08-24T08:41:51.596Z,53.56
2022-08-24T08:42:51.443Z,50.80
2022-08-24T08:44:51.469Z,53.03
2022-08-24T08:45:51.483Z,52.55
2022-08-24T08:46:51.419Z,51.45
2022-08-24T08:47:51.507Z,49.83
2022-08-24T08:49:51.454Z,46.40
2022-08-24T08:50:51.469Z,45.77
2022-08-24T08:51:51.448Z,46.39
2022-08-24T08:52:51.508Z,46.85
2022-08-24T08:54:51.459Z,47.10
2022-08-24T08:55:53.269Z,47.58
2022-08-24T08:56:53.990Z,46.66
2022-08-24T08:57:51.468Z,47.21
2022-08-24T08:59:51.460Z,48.30
2022-08-24T09:00:51.509Z,49.80
2022-08-24T09:01:51.537Z,47.87
2022-08-24T09:02:51.488Z,48.24
2022-08-24T09:04:51.664Z,52.61
2022-08-24T09:05:51.552Z,52.57
2022-08-24T09:06:51.475Z,50.54
2022-08-24T09:07:51.464Z,48.72
2022-08-24T09:09:51.492Z,48.70
2022-08-24T09:10:51.481Z,48.90
2022-08-24T09:11:51.490Z,47.12
2022-08-24T09:12:51.494Z,45.28
2022-08-24T09:14:51.519Z,45.36
2022-08-24T09:15:53.252Z,45.40
2022-08-24T09:16:51.524Z,45.33
2022-08-24T09:17:51.505Z,45.56
2022-08-24T09:19:51.484Z,44.57
2022-08-24T09:20:51.506Z,43.56
2022-08-24T09:21:52.340Z,43.69
2022-08-24T09:22:51.508Z,43.82
2022-08-24T09:24:51.508Z,43.19
2022-08-24T09:25:51.491Z,44.39
2022-08-24T09:26:51.502Z,46.43
2022-08-24T09:28:02.349Z,46.67
2022-08-24T09:29:51.519Z,45.37
2022-08-24T09:30:51.534Z,46.27
2022-08-24T09:31:51.514Z,46.30
2022-08-24T09:32:51.528Z,44.44
2022-08-24T09:34:51.548Z,41.87
2022-08-24T09:35:51.545Z,41.11
2022-08-24T09:36:51.514Z,40.91
2022-08-24T09:37:51.526Z,42.40
2022-08-24T09:39:51.662Z,42.70
2022-08-24T09:40:51.599Z,42.38
2022-08-24T09:41:51.554Z,45.44
2022-08-24T09:42:51.521Z,44.09
2022-08-24T09:44:51.539Z,43.13
2022-08-24T09:45:52.107Z,42.58
2022-08-24T09:46:51.560Z,42.66
2022-08-24T09:47:51.522Z,43.49
2022-08-24T09:49:51.526Z,43.96
2022-08-24T09:50:51.742Z,44.48
2022-08-24T09:51:51.541Z,43.36
2022-08-24T09:53:51.569Z,43.87
2022-08-24T09:54:51.571Z,43.52
2022-08-24T09:55:51.558Z,44.52
2022-08-24T09:56:53.781Z,45.16
2022-08-24T09:58:51.546Z,44.38
2022-08-24T09:59:51.548Z,43.08
2022-08-24T10:00:51.603Z,42.88
2022-08-24T10:01:51.571Z,41.57
2022-08-24T10:03:51.540Z,43.38
2022-08-24T10:04:51.664Z,42.20
2022-08-24T10:05:51.653Z,41.36
2022-08-24T10:06:51.546Z,41.29
2022-08-24T10:08:51.558Z,41.56
2022-08-24T10:09:51.567Z,41.73
2022-08-24T10:10:51.582Z,41.87
2022-08-24T10:11:51.582Z,41.23
2022-08-24T10:13:51.598Z,40.63
2022-08-24T10:14:51.553Z,39.99
2022-08-24T10:15:51.600Z,40.43
2022-08-24T10:16:51.622Z,40.66
2022-08-24T10:18:51.578Z,41.52
2022-08-24T10:19:51.595Z,41.16
2022-08-24T10:20:51.571Z,39.97
2022-08-24T10:21:51.603Z,37.95
2022-08-24T10:23:51.612Z,38.37
2022-08-24T10:24:51.601Z,37.92
2022-08-24T10:25:51.606Z,38.31
2022-08-24T10:26:51.581Z,38.44
2022-08-24T10:28:51.611Z,39.19
2022-08-24T10:29:51.610Z,38.79
2022-08-24T10:30:51.608Z,38.41
2022-08-24T10:31:51.646Z,36.74
2022-08-24T10:33:51.613Z,35.21
2022-08-24T10:34:51.632Z,34.98
2022-08-24T10:35:51.608Z,35.29
2022-08-24T10:36:51.619Z,35.18
2022-08-24T10:38:51.606Z,34.84
2022-08-24T10:39:51.726Z,35.24
2022-08-24T10:40:51.628Z,36.74
2022-08-24T10:41:51.622Z,35.51
2022-08-24T10:43:51.623Z,34.38
2022-08-24T10:44:51.636Z,34.59
2022-08-24T10:45:51.643Z,33.48
2022-08-24T10:46:54.437Z,33.38
2022-08-24T10:48:51.641Z,32.57
2022-08-24T10:49:51.655Z,32.52
2022-08-24T10:50:51.641Z,32.16
2022-08-24T10:51:51.639Z,30.99
2022-08-24T10:53:51.655Z,31.62
2022-08-24T10:54:51.655Z,30.27
2022-08-24T10:55:51.647Z,31.87
2022-08-24T10:56:51.654Z,31.22
2022-08-24T10:58:51.652Z,31.94
2022-08-24T10:59:51.663Z,30.36
2022-08-24T11:00:51.687Z,29.67
2022-08-24T11:01:51.700Z,29.73
2022-08-24T11:03:51.655Z,30.71
2022-08-24T11:04:51.675Z,29.79
2022-08-24T11:05:51.660Z,30.40
2022-08-24T11:06:51.656Z,30.13
2022-08-24T11:08:51.678Z,30.57
2022-08-24T11:09:51.663Z,28.66
2022-08-24T11:10:51.655Z,27.93
2022-08-24T11:11:51.674Z,29.88
2022-08-24T11:13:51.678Z,28.54
2022-08-24T11:14:51.688Z,27.85
2022-08-24T11:15:51.711Z,27.15
2022-08-24T11:16:55.753Z,27.01
2022-08-24T11:18:51.668Z,27.47
2022-08-24T11:19:51.681Z,28.06
2022-08-24T11:20:51.694Z,27.55
2022-08-24T11:21:51.689Z,28.11
2022-08-24T11:23:51.687Z,28.92
2022-08-24T11:24:51.711Z,27.70
2022-08-24T11:25:51.699Z,27.86
2022-08-24T11:26:53.688Z,28.38
2022-08-24T11:28:51.728Z,27.29
2022-08-24T11:29:51.700Z,28.38
2022-08-24T11:30:51.694Z,28.24
2022-08-24T11:31:51.718Z,28.21
2022-08-24T11:33:51.722Z,27.73
2022-08-24T11:34:51.698Z,26.82
2022-08-24T11:35:51.704Z,26.32
2022-08-24T11:36:51.703Z,26.27
2022-08-24T11:38:51.699Z,26.39
2022-08-24T11:39:51.743Z,27.19
2022-08-24T11:40:51.725Z,27.70
2022-08-24T11:41:51.706Z,25.61
2022-08-24T11:43:51.726Z,24.25
2022-08-24T11:44:51.729Z,25.40
2022-08-24T11:45:51.734Z,24.94
2022-08-24T11:46:51.764Z,24.38
2022-08-24T11:48:51.729Z,26.31
2022-08-24T11:49:51.739Z,26.25
2022-08-24T11:50:51.748Z,27.34
2022-08-24T11:51:51.735Z,28.95
2022-08-24T11:53:51.735Z,28.50
2022-08-24T11:54:51.754Z,27.83
2022-08-24T11:55:57.205Z,28.19
2022-08-24T11:56:51.752Z,28.21
2022-08-24T11:58:51.738Z,28.69
2022-08-24T11:59:51.748Z,28.36
2022-08-24T12:00:51.763Z,29.05
2022-08-24T12:01:51.895Z,28.13
2022-08-24T12:03:52.772Z,28.81
2022-08-24T12:04:51.744Z,28.80
2022-08-24T12:05:51.773Z,27.86
2022-08-24T12:06:51.781Z,27.58
2022-08-24T12:08:51.745Z,27.97
2022-08-24T12:09:51.758Z,28.39
2022-08-24T12:10:51.770Z,28.10
2022-08-24T12:11:51.787Z,27.44
2022-08-24T12:13:51.753Z,27.68
2022-08-24T12:14:51.775Z,26.88
2022-08-24T12:15:52.253Z,26.86
2022-08-24T12:16:51.846Z,26.73
2022-08-24T12:18:51.781Z,26.32
2022-08-24T12:19:51.788Z,25.52
2022-08-24T12:20:51.763Z,25.79
2022-08-24T12:21:51.791Z,25.65
2022-08-24T12:23:51.792Z,25.12
2022-08-24T12:24:51.780Z,25.21
2022-08-24T12:25:51.800Z,25.59
2022-08-24T12:26:51.789Z,26.15
2022-08-24T12:28:54.472Z,24.21
2022-08-24T12:29:51.791Z,24.92
2022-08-24T12:30:51.793Z,24.52
2022-08-24T12:31:51.865Z,24.83
2022-08-24T12:33:51.811Z,23.54
2022-08-24T12:34:51.789Z,23.37
2022-08-24T12:35:51.787Z,24.90
2022-08-24T12:36:51.805Z,24.65
2022-08-24T12:38:51.816Z,24.18
2022-08-24T12:39:51.860Z,24.78
2022-08-24T12:40:51.816Z,24.65
2022-08-24T12:41:51.822Z,26.12
2022-08-24T12:43:51.821Z,25.48
2022-08-24T12:44:51.817Z,25.15
2022-08-24T12:45:51.849Z,24.61
2022-08-24T12:46:51.857Z,25.16
2022-08-24T12:48:55.095Z,24.25
2022-08-24T12:49:51.822Z,24.15
2022-08-24T12:50:51.843Z,25.16
2022-08-24T12:51:51.855Z,25.84
2022-08-24T12:53:51.831Z,27.15
2022-08-24T12:54:51.857Z,27.31
2022-08-24T12:55:52.519Z,27.81
2022-08-24T12:56:51.831Z,28.39
2022-08-24T12:58:54.655Z,29.13
2022-08-24T12:59:51.857Z,29.17
2022-08-24T13:00:51.895Z,29.24
2022-08-24T13:01:51.880Z,30.05
2022-08-24T13:03:51.866Z,28.84
2022-08-24T13:04:51.852Z,27.37
2022-08-24T13:05:51.844Z,27.88
2022-08-24T13:06:54.229Z,28.36
2022-08-24T13:08:51.840Z,25.71
2022-08-24T13:09:51.875Z,25.48
2022-08-24T13:10:51.865Z,24.98
2022-08-24T13:11:51.853Z,25.28
2022-08-24T13:13:51.853Z,25.69
2022-08-24T13:14:54.104Z,24.69
2022-08-24T13:15:51.893Z,24.93
2022-08-24T13:16:51.861Z,25.32
2022-08-24T13:18:51.879Z,24.40
2022-08-24T13:19:51.869Z,24.08
2022-08-24T13:20:51.873Z,23.86
2022-08-24T13:21:51.878Z,24.34
2022-08-24T13:23:51.890Z,25.13
2022-08-24T13:24:51.881Z,24.64
2022-08-24T13:25:51.910Z,24.90
2022-08-24T13:26:51.914Z,24.96
2022-08-24T13:28:55.580Z,24.89
2022-08-24T13:29:51.888Z,24.27
2022-08-24T13:30:51.943Z,23.85
2022-08-24T13:31:51.891Z,24.37
2022-08-24T13:33:51.927Z,24.09
2022-08-24T13:34:51.892Z,23.90
2022-08-24T13:35:51.925Z,24.09
2022-08-24T13:36:51.890Z,23.64
2022-08-24T13:38:52.432Z,24.23
2022-08-24T13:39:51.948Z,24.47
2022-08-24T13:40:51.910Z,24.91
2022-08-24T13:41:51.906Z,23.91
2022-08-24T13:43:51.914Z,22.77
2022-08-24T13:44:51.908Z,22.00
2022-08-24T13:45:51.927Z,22.69
2022-08-24T13:46:51.985Z,22.82
2022-08-24T13:48:51.917Z,22.47
2022-08-24T13:49:51.915Z,22.48
2022-08-24T13:50:51.917Z,22.65
2022-08-24T13:51:51.948Z,22.91
2022-08-24T13:53:51.929Z,23.38
2022-08-24T13:54:51.926Z,23.33
2022-08-24T13:55:51.940Z,22.88
2022-08-24T13:56:51.921Z,23.20
2022-08-24T13:58:51.971Z,23.10
2022-08-24T13:59:51.956Z,23.94
2022-08-24T14:00:51.946Z,23.81
2022-08-24T14:01:52.033Z,24.07
2022-08-24T14:03:51.960Z,23.45
2022-08-24T14:04:51.968Z,23.19
2022-08-24T14:05:51.990Z,23.46
2022-08-24T14:06:51.941Z,22.90
2022-08-24T14:08:51.955Z,23.17
2022-08-24T14:09:51.981Z,23.91
2022-08-24T14:10:51.967Z,24.16
2022-08-24T14:11:51.957Z,24.64
2022-08-24T14:13:51.978Z,24.45
2022-08-24T14:14:51.955Z,23.98
2022-08-24T14:15:52.020Z,23.62
2022-08-24T14:16:51.968Z,23.34
2022-08-24T14:18:51.965Z,23.87
2022-08-24T14:19:51.982Z,23.89
2022-08-24T14:20:51.976Z,23.39
2022-08-24T14:21:51.965Z,23.27
2022-08-24T14:23:51.966Z,22.72
2022-08-24T14:24:51.977Z,22.67
2022-08-24T14:25:52.134Z,24.12
2022-08-24T14:26:53.099Z,24.81
2022-08-24T14:28:51.968Z,24.25
2022-08-24T14:29:51.978Z,24.43
2022-08-24T14:30:54.563Z,24.68
2022-08-24T14:31:52.100Z,24.76
2022-08-24T14:33:52.088Z,25.47
2022-08-24T14:34:52.101Z,25.44
2022-08-24T14:35:52.114Z,24.73
2022-08-24T14:36:57.384Z,25.50
2022-08-24T14:38:52.115Z,25.64
2022-08-24T14:39:52.167Z,25.16
2022-08-24T14:40:52.112Z,25.27
2022-08-24T14:41:52.130Z,25.74
2022-08-24T14:43:52.126Z,24.25
2022-08-24T14:44:52.125Z,24.38
2022-08-24T14:45:52.156Z,24.05
2022-08-24T14:46:52.178Z,25.23
2022-08-24T14:48:55.202Z,24.89
2022-08-24T14:49:52.123Z,25.44
2022-08-24T14:50:52.136Z,24.65
2022-08-24T14:51:52.133Z,24.98
2022-08-24T14:53:52.144Z,23.63
2022-08-24T14:54:52.129Z,22.59
2022-08-24T14:55:52.143Z,22.17
2022-08-24T14:56:52.132Z,22.05
2022-08-24T14:58:52.126Z,22.25
2022-08-24T14:59:52.147Z,22.23
2022-08-24T15:00:52.175Z,21.69
2022-08-24T15:01:52.181Z,21.72
2022-08-24T15:03:52.142Z,22.96
2022-08-24T15:04:52.148Z,23.77
2022-08-24T15:06:16.068Z,24.01
2022-08-24T15:06:52.149Z,24.81
2022-08-24T15:08:52.153Z,24.91
2022-08-24T15:09:52.150Z,25.73
2022-08-24T15:10:52.148Z,26.74
2022-08-24T15:11:52.138Z,26.43
2022-08-24T15:13:52.160Z,26.39
2022-08-24T15:14:52.186Z,25.04
2022-08-24T15:15:52.217Z,25.39
2022-08-24T15:16:53.507Z,25.13
2022-08-24T15:18:52.169Z,26.60
2022-08-24T15:19:52.182Z,26.49
2022-08-24T15:20:52.180Z,27.17
2022-08-24T15:21:52.177Z,26.70
2022-08-24T15:23:52.192Z,28.15
2022-08-24T15:24:52.165Z,29.08
2022-08-24T15:25:52.188Z,29.21
2022-08-24T15:26:52.195Z,29.03
2022-08-24T15:28:56.336Z,28.46
2022-08-24T15:29:52.208Z,29.57
2022-08-24T15:30:52.213Z,29.35
2022-08-24T15:32:52.194Z,28.45
2022-08-24T15:33:52.196Z,29.17
2022-08-24T15:34:52.192Z,30.58
2022-08-24T15:35:52.201Z,29.71
2022-08-24T15:37:52.199Z,29.81
2022-08-24T15:38:52.201Z,29.29
2022-08-24T15:39:52.258Z,29.32
2022-08-24T15:40:52.211Z,29.36
2022-08-24T15:42:52.219Z,29.32
2022-08-24T15:43:52.206Z,28.94
2022-08-24T15:44:52.209Z,27.93
2022-08-24T15:45:52.265Z,28.42
2022-08-24T15:47:52.238Z,27.42
2022-08-24T15:48:52.208Z,28.28
2022-08-24T15:49:52.221Z,27.73
2022-08-24T15:50:52.222Z,28.23